sensor_id;sensor_type;location;lat;lon;timestamp;P1;durP1;ratioP1;P2;durP2;ratioP2
31037;SDS011;17702;47.590;7.666;2023-12-28T00:00:26;11.63;;;6.70;;
31037;SDS011;17702;47.590;7.666;2023-12-28T00:02:52;13.93;;;6.55;;
31037;SDS011;17702;47.590;7.666;2023-12-28T00:05:18;9.75;;;6.60;;
31037;SDS011;17702;47.590;7.666;2023-12-28T00:07:43;9.55;;;6.68;;
31037;SDS011;17702;47.590;7.666;2023-12-28T00:10:09;9.23;;;6.28;;
31037;SDS011;17702;47.590;7.666;2023-12-28T00:12:35;9.00;;;6.32;;
31037;SDS011;17702;47.590;7.666;2023-12-28T00:15:00;11.75;;;6.07;;
31037;SDS011;17702;47.590;7.666;2023-12-28T00:17:26;9.90;;;6.60;;
31037;SDS011;17702;47.590;7.666;2023-12-28T00:19:51;9.20;;;6.28;;
31037;SDS011;17702;47.590;7.666;2023-12-28T00:22:17;7.30;;;6.47;;
31037;SDS011;17702;47.590;7.666;2023-12-28T00:24:43;11.07;;;7.30;;
31037;SDS011;17702;47.590;7.666;2023-12-28T00:27:08;9.25;;;7.18;;
31037;SDS011;17702;47.590;7.666;2023-12-28T00:29:34;13.70;;;7.38;;
31037;SDS011;17702;47.590;7.666;2023-12-28T00:32:03;9.65;;;6.82;;
31037;SDS011;17702;47.590;7.666;2023-12-28T00:34:32;16.67;;;8.88;;
31037;SDS011;17702;47.590;7.666;2023-12-28T00:36:57;10.88;;;7.97;;
31037;SDS011;17702;47.590;7.666;2023-12-28T00:39:23;11.80;;;7.88;;
31037;SDS011;17702;47.590;7.666;2023-12-28T00:41:49;13.50;;;8.63;;
31037;SDS011;17702;47.590;7.666;2023-12-28T00:44:14;13.38;;;8.07;;
31037;SDS011;17702;47.590;7.666;2023-12-28T00:46:40;10.75;;;7.53;;
31037;SDS011;17702;47.590;7.666;2023-12-28T00:49:05;14.32;;;7.85;;
31037;SDS011;17702;47.590;7.666;2023-12-28T00:51:31;12.02;;;7.80;;
31037;SDS011;17702;47.590;7.666;2023-12-28T00:53:57;11.07;;;7.63;;
31037;SDS011;17702;47.590;7.666;2023-12-28T00:56:22;20.30;;;11.98;;
31037;SDS011;17702;47.590;7.666;2023-12-28T00:58:48;18.50;;;13.98;;
31037;SDS011;17702;47.590;7.666;2023-12-28T01:01:13;17.38;;;9.45;;
31037;SDS011;17702;47.590;7.666;2023-12-28T01:03:39;14.65;;;7.32;;
31037;SDS011;17702;47.590;7.666;2023-12-28T01:06:05;12.77;;;7.05;;
31037;SDS011;17702;47.590;7.666;2023-12-28T01:08:31;10.60;;;6.75;;
31037;SDS011;17702;47.590;7.666;2023-12-28T01:10:58;9.25;;;6.65;;
31037;SDS011;17702;47.590;7.666;2023-12-28T01:13:24;13.48;;;6.90;;
31037;SDS011;17702;47.590;7.666;2023-12-28T01:15:50;14.82;;;7.72;;
31037;SDS011;17702;47.590;7.666;2023-12-28T01:18:15;14.70;;;7.05;;
31037;SDS011;17702;47.590;7.666;2023-12-28T01:20:41;9.38;;;6.95;;
31037;SDS011;17702;47.590;7.666;2023-12-28T01:23:06;12.02;;;6.88;;
31037;SDS011;17702;47.590;7.666;2023-12-28T01:25:32;9.70;;;6.85;;
31037;SDS011;17702;47.590;7.666;2023-12-28T01:27:58;12.90;;;6.65;;
31037;SDS011;17702;47.590;7.666;2023-12-28T01:30:23;13.18;;;6.57;;
31037;SDS011;17702;47.590;7.666;2023-12-28T01:32:49;11.45;;;6.32;;
31037;SDS011;17702;47.590;7.666;2023-12-28T01:35:14;10.82;;;6.40;;
31037;SDS011;17702;47.590;7.666;2023-12-28T01:37:40;16.08;;;7.05;;
31037;SDS011;17702;47.590;7.666;2023-12-28T01:40:06;8.68;;;6.68;;
31037;SDS011;17702;47.590;7.666;2023-12-28T01:42:32;13.00;;;6.60;;
31037;SDS011;17702;47.590;7.666;2023-12-28T01:44:57;8.82;;;6.38;;
31037;SDS011;17702;47.590;7.666;2023-12-28T01:47:27;10.23;;;6.80;;
31037;SDS011;17702;47.590;7.666;2023-12-28T01:49:54;9.75;;;7.55;;
31037;SDS011;17702;47.590;7.666;2023-12-28T01:52:21;13.07;;;7.00;;
31037;SDS011;17702;47.590;7.666;2023-12-28T01:54:47;9.48;;;7.10;;
31037;SDS011;17702;47.590;7.666;2023-12-28T01:57:14;13.02;;;8.65;;
31037;SDS011;17702;47.590;7.666;2023-12-28T01:59:40;15.82;;;9.50;;
31037;SDS011;17702;47.590;7.666;2023-12-28T02:02:06;10.07;;;6.80;;
31037;SDS011;17702;47.590;7.666;2023-12-28T02:04:32;14.50;;;10.23;;
31037;SDS011;17702;47.590;7.666;2023-12-28T02:06:59;9.52;;;6.60;;
31037;SDS011;17702;47.590;7.666;2023-12-28T02:09:25;8.60;;;6.70;;
31037;SDS011;17702;47.590;7.666;2023-12-28T02:11:51;8.45;;;6.20;;
31037;SDS011;17702;47.590;7.666;2023-12-28T02:14:18;9.10;;;6.82;;
31037;SDS011;17702;47.590;7.666;2023-12-28T02:16:47;8.90;;;6.80;;
31037;SDS011;17702;47.590;7.666;2023-12-28T02:22:08;14.60;;;7.05;;
31037;SDS011;17702;47.590;7.666;2023-12-28T02:27:35;10.05;;;6.28;;
31037;SDS011;17702;47.590;7.666;2023-12-28T02:30:06;12.07;;;6.60;;
31037;SDS011;17702;47.590;7.666;2023-12-28T02:32:44;10.32;;;6.10;;
31037;SDS011;17702;47.590;7.666;2023-12-28T02:35:23;8.05;;;6.28;;
31037;SDS011;17702;47.590;7.666;2023-12-28T02:37:51;9.68;;;6.70;;
31037;SDS011;17702;47.590;7.666;2023-12-28T02:40:19;8.80;;;6.25;;
31037;SDS011;17702;47.590;7.666;2023-12-28T02:42:46;10.10;;;6.82;;
31037;SDS011;17702;47.590;7.666;2023-12-28T02:45:12;9.15;;;6.40;;
31037;SDS011;17702;47.590;7.666;2023-12-28T02:47:37;8.43;;;6.55;;
31037;SDS011;17702;47.590;7.666;2023-12-28T02:50:03;7.63;;;6.18;;
31037;SDS011;17702;47.590;7.666;2023-12-28T02:52:29;8.25;;;6.25;;
31037;SDS011;17702;47.590;7.666;2023-12-28T02:54:54;12.48;;;7.22;;
31037;SDS011;17702;47.590;7.666;2023-12-28T02:57:20;9.07;;;6.72;;
31037;SDS011;17702;47.590;7.666;2023-12-28T02:59:45;8.18;;;6.45;;
31037;SDS011;17702;47.590;7.666;2023-12-28T03:02:11;13.30;;;7.15;;
31037;SDS011;17702;47.590;7.666;2023-12-28T03:04:36;8.52;;;6.90;;
31037;SDS011;17702;47.590;7.666;2023-12-28T03:07:02;11.45;;;6.80;;
31037;SDS011;17702;47.590;7.666;2023-12-28T03:09:27;11.13;;;6.63;;
31037;SDS011;17702;47.590;7.666;2023-12-28T03:11:53;14.23;;;7.60;;
31037;SDS011;17702;47.590;7.666;2023-12-28T03:14:18;17.67;;;9.23;;
31037;SDS011;17702;47.590;7.666;2023-12-28T03:16:46;9.98;;;6.97;;
31037;SDS011;17702;47.590;7.666;2023-12-28T03:19:12;10.07;;;6.63;;
31037;SDS011;17702;47.590;7.666;2023-12-28T03:21:40;12.57;;;6.70;;
31037;SDS011;17702;47.590;7.666;2023-12-28T03:24:07;9.18;;;6.65;;
31037;SDS011;17702;47.590;7.666;2023-12-28T03:26:32;9.55;;;6.82;;
31037;SDS011;17702;47.590;7.666;2023-12-28T03:29:06;10.45;;;6.38;;
31037;SDS011;17702;47.590;7.666;2023-12-28T03:31:32;8.52;;;6.43;;
31037;SDS011;17702;47.590;7.666;2023-12-28T03:33:58;8.57;;;5.68;;
31037;SDS011;17702;47.590;7.666;2023-12-28T03:36:24;10.50;;;6.18;;
31037;SDS011;17702;47.590;7.666;2023-12-28T03:38:50;6.72;;;5.38;;
31037;SDS011;17702;47.590;7.666;2023-12-28T03:41:17;9.57;;;6.50;;
31037;SDS011;17702;47.590;7.666;2023-12-28T03:43:43;9.60;;;5.97;;
31037;SDS011;17702;47.590;7.666;2023-12-28T03:46:10;7.70;;;5.55;;
31037;SDS011;17702;47.590;7.666;2023-12-28T03:48:35;8.30;;;6.05;;
31037;SDS011;17702;47.590;7.666;2023-12-28T03:51:02;7.65;;;5.38;;
31037;SDS011;17702;47.590;7.666;2023-12-28T03:53:27;5.75;;;4.88;;
31037;SDS011;17702;47.590;7.666;2023-12-28T03:55:53;4.75;;;4.25;;
31037;SDS011;17702;47.590;7.666;2023-12-28T03:58:19;5.72;;;4.68;;
31037;SDS011;17702;47.590;7.666;2023-12-28T04:00:44;6.10;;;4.82;;
31037;SDS011;17702;47.590;7.666;2023-12-28T04:03:10;6.40;;;5.30;;
31037;SDS011;17702;47.590;7.666;2023-12-28T04:05:36;7.93;;;5.53;;
31037;SDS011;17702;47.590;7.666;2023-12-28T04:08:01;7.10;;;5.00;;
31037;SDS011;17702;47.590;7.666;2023-12-28T04:10:31;7.63;;;5.35;;
31037;SDS011;17702;47.590;7.666;2023-12-28T04:12:57;6.13;;;5.53;;
31037;SDS011;17702;47.590;7.666;2023-12-28T04:15:24;5.10;;;4.60;;
31037;SDS011;17702;47.590;7.666;2023-12-28T04:17:50;9.23;;;5.38;;
31037;SDS011;17702;47.590;7.666;2023-12-28T04:20:16;6.95;;;4.82;;
31037;SDS011;17702;47.590;7.666;2023-12-28T04:22:42;9.38;;;5.53;;
31037;SDS011;17702;47.590;7.666;2023-12-28T04:25:08;7.20;;;5.18;;
31037;SDS011;17702;47.590;7.666;2023-12-28T04:27:34;10.88;;;5.43;;
31037;SDS011;17702;47.590;7.666;2023-12-28T04:30:00;9.55;;;5.70;;
31037;SDS011;17702;47.590;7.666;2023-12-28T04:32:25;5.78;;;5.00;;
31037;SDS011;17702;47.590;7.666;2023-12-28T04:34:52;9.63;;;5.50;;
31037;SDS011;17702;47.590;7.666;2023-12-28T04:37:19;6.18;;;5.57;;
31037;SDS011;17702;47.590;7.666;2023-12-28T04:39:44;13.75;;;6.18;;
31037;SDS011;17702;47.590;7.666;2023-12-28T04:42:10;11.65;;;6.10;;
31037;SDS011;17702;47.590;7.666;2023-12-28T04:44:39;12.15;;;5.45;;
31037;SDS011;17702;47.590;7.666;2023-12-28T04:47:05;11.60;;;5.90;;
31037;SDS011;17702;47.590;7.666;2023-12-28T04:49:31;8.52;;;5.82;;
31037;SDS011;17702;47.590;7.666;2023-12-28T04:51:56;9.30;;;5.78;;
31037;SDS011;17702;47.590;7.666;2023-12-28T04:54:22;12.32;;;5.85;;
31037;SDS011;17702;47.590;7.666;2023-12-28T04:56:48;12.27;;;5.50;;
31037;SDS011;17702;47.590;7.666;2023-12-28T04:59:14;8.68;;;5.65;;
31037;SDS011;17702;47.590;7.666;2023-12-28T05:01:45;7.43;;;5.55;;
31037;SDS011;17702;47.590;7.666;2023-12-28T05:04:11;9.55;;;5.15;;
31037;SDS011;17702;47.590;7.666;2023-12-28T05:06:37;9.15;;;5.38;;
31037;SDS011;17702;47.590;7.666;2023-12-28T05:09:03;10.98;;;5.97;;
31037;SDS011;17702;47.590;7.666;2023-12-28T05:11:29;8.38;;;5.18;;
31037;SDS011;17702;47.590;7.666;2023-12-28T05:13:55;8.18;;;4.82;;
31037;SDS011;17702;47.590;7.666;2023-12-28T05:16:20;8.88;;;5.38;;
31037;SDS011;17702;47.590;7.666;2023-12-28T05:18:46;8.05;;;5.25;;
31037;SDS011;17702;47.590;7.666;2023-12-28T05:21:12;7.03;;;5.75;;
31037;SDS011;17702;47.590;7.666;2023-12-28T05:23:38;6.95;;;5.93;;
31037;SDS011;17702;47.590;7.666;2023-12-28T05:26:04;9.90;;;5.18;;
31037;SDS011;17702;47.590;7.666;2023-12-28T05:28:29;7.70;;;5.20;;
31037;SDS011;17702;47.590;7.666;2023-12-28T05:30:55;6.10;;;5.20;;
31037;SDS011;17702;47.590;7.666;2023-12-28T05:33:22;8.73;;;5.57;;
31037;SDS011;17702;47.590;7.666;2023-12-28T05:35:47;10.27;;;6.50;;
31037;SDS011;17702;47.590;7.666;2023-12-28T05:38:13;10.60;;;6.50;;
31037;SDS011;17702;47.590;7.666;2023-12-28T05:40:39;9.15;;;5.97;;
31037;SDS011;17702;47.590;7.666;2023-12-28T05:43:04;7.90;;;5.90;;
31037;SDS011;17702;47.590;7.666;2023-12-28T05:45:30;7.78;;;5.88;;
31037;SDS011;17702;47.590;7.666;2023-12-28T05:47:56;10.75;;;6.00;;
31037;SDS011;17702;47.590;7.666;2023-12-28T05:50:21;8.27;;;6.13;;
31037;SDS011;17702;47.590;7.666;2023-12-28T05:52:47;9.75;;;5.85;;
31037;SDS011;17702;47.590;7.666;2023-12-28T05:55:13;10.27;;;6.70;;
31037;SDS011;17702;47.590;7.666;2023-12-28T05:57:39;9.68;;;6.28;;
31037;SDS011;17702;47.590;7.666;2023-12-28T06:00:05;13.32;;;6.20;;
31037;SDS011;17702;47.590;7.666;2023-12-28T06:02:31;6.82;;;6.00;;
31037;SDS011;17702;47.590;7.666;2023-12-28T06:04:57;7.75;;;5.65;;
31037;SDS011;17702;47.590;7.666;2023-12-28T06:07:22;7.03;;;5.55;;
31037;SDS011;17702;47.590;7.666;2023-12-28T06:09:48;8.68;;;6.13;;
31037;SDS011;17702;47.590;7.666;2023-12-28T06:12:14;6.60;;;5.53;;
31037;SDS011;17702;47.590;7.666;2023-12-28T06:14:39;13.70;;;6.68;;
31037;SDS011;17702;47.590;7.666;2023-12-28T06:17:05;7.13;;;5.93;;
31037;SDS011;17702;47.590;7.666;2023-12-28T06:19:31;8.57;;;6.00;;
31037;SDS011;17702;47.590;7.666;2023-12-28T06:21:57;8.32;;;6.30;;
31037;SDS011;17702;47.590;7.666;2023-12-28T06:24:23;11.07;;;6.57;;
31037;SDS011;17702;47.590;7.666;2023-12-28T06:26:49;14.15;;;5.82;;
31037;SDS011;17702;47.590;7.666;2023-12-28T06:29:15;10.68;;;6.95;;
31037;SDS011;17702;47.590;7.666;2023-12-28T06:31:41;12.43;;;5.88;;
31037;SDS011;17702;47.590;7.666;2023-12-28T06:34:07;11.63;;;6.25;;
31037;SDS011;17702;47.590;7.666;2023-12-28T06:36:32;9.00;;;5.97;;
31037;SDS011;17702;47.590;7.666;2023-12-28T06:38:58;6.85;;;5.70;;
31037;SDS011;17702;47.590;7.666;2023-12-28T06:41:24;10.77;;;6.82;;
31037;SDS011;17702;47.590;7.666;2023-12-28T06:43:51;9.45;;;6.75;;
31037;SDS011;17702;47.590;7.666;2023-12-28T06:46:17;10.70;;;5.97;;
31037;SDS011;17702;47.590;7.666;2023-12-28T06:48:43;8.95;;;5.68;;
31037;SDS011;17702;47.590;7.666;2023-12-28T06:51:09;9.40;;;6.47;;
31037;SDS011;17702;47.590;7.666;2023-12-28T06:53:40;9.95;;;6.68;;
31037;SDS011;17702;47.590;7.666;2023-12-28T06:56:06;10.00;;;6.68;;
31037;SDS011;17702;47.590;7.666;2023-12-28T06:58:32;9.75;;;6.30;;
31037;SDS011;17702;47.590;7.666;2023-12-28T07:00:58;10.75;;;6.55;;
31037;SDS011;17702;47.590;7.666;2023-12-28T07:03:23;9.55;;;6.32;;
31037;SDS011;17702;47.590;7.666;2023-12-28T07:05:50;11.07;;;6.25;;
31037;SDS011;17702;47.590;7.666;2023-12-28T07:08:16;10.20;;;5.95;;
31037;SDS011;17702;47.590;7.666;2023-12-28T07:10:41;7.47;;;6.38;;
31037;SDS011;17702;47.590;7.666;2023-12-28T07:13:07;10.10;;;6.55;;
31037;SDS011;17702;47.590;7.666;2023-12-28T07:15:33;7.10;;;6.10;;
31037;SDS011;17702;47.590;7.666;2023-12-28T07:17:59;11.15;;;6.45;;
31037;SDS011;17702;47.590;7.666;2023-12-28T07:20:25;7.65;;;6.22;;
31037;SDS011;17702;47.590;7.666;2023-12-28T07:22:51;14.85;;;6.90;;
31037;SDS011;17702;47.590;7.666;2023-12-28T07:25:16;10.85;;;6.55;;
31037;SDS011;17702;47.590;7.666;2023-12-28T07:27:42;11.43;;;6.70;;
31037;SDS011;17702;47.590;7.666;2023-12-28T07:30:07;9.32;;;7.18;;
31037;SDS011;17702;47.590;7.666;2023-12-28T07:32:33;9.77;;;6.90;;
31037;SDS011;17702;47.590;7.666;2023-12-28T07:34:59;9.20;;;6.68;;
31037;SDS011;17702;47.590;7.666;2023-12-28T07:37:25;10.68;;;6.90;;
31037;SDS011;17702;47.590;7.666;2023-12-28T07:39:50;9.43;;;6.60;;
31037;SDS011;17702;47.590;7.666;2023-12-28T07:42:16;12.23;;;7.45;;
31037;SDS011;17702;47.590;7.666;2023-12-28T07:44:42;11.93;;;7.78;;
31037;SDS011;17702;47.590;7.666;2023-12-28T07:47:08;9.93;;;6.45;;
31037;SDS011;17702;47.590;7.666;2023-12-28T07:49:33;8.65;;;6.43;;
31037;SDS011;17702;47.590;7.666;2023-12-28T07:51:59;7.93;;;7.00;;
31037;SDS011;17702;47.590;7.666;2023-12-28T07:54:24;13.00;;;7.03;;
31037;SDS011;17702;47.590;7.666;2023-12-28T07:56:50;11.02;;;7.72;;
31037;SDS011;17702;47.590;7.666;2023-12-28T07:59:16;12.15;;;7.40;;
31037;SDS011;17702;47.590;7.666;2023-12-28T08:01:41;12.57;;;7.30;;
31037;SDS011;17702;47.590;7.666;2023-12-28T08:04:07;12.55;;;7.88;;
31037;SDS011;17702;47.590;7.666;2023-12-28T08:06:33;12.50;;;7.65;;
31037;SDS011;17702;47.590;7.666;2023-12-28T08:08:59;14.10;;;7.40;;
31037;SDS011;17702;47.590;7.666;2023-12-28T08:11:26;11.20;;;7.45;;
31037;SDS011;17702;47.590;7.666;2023-12-28T08:13:52;12.75;;;7.13;;
31037;SDS011;17702;47.590;7.666;2023-12-28T08:16:18;9.65;;;6.63;;
31037;SDS011;17702;47.590;7.666;2023-12-28T08:18:43;11.45;;;7.90;;
31037;SDS011;17702;47.590;7.666;2023-12-28T08:21:09;16.23;;;8.27;;
31037;SDS011;17702;47.590;7.666;2023-12-28T08:23:34;11.48;;;7.40;;
31037;SDS011;17702;47.590;7.666;2023-12-28T08:26:00;16.00;;;9.25;;
31037;SDS011;17702;47.590;7.666;2023-12-28T08:28:25;14.63;;;8.07;;
31037;SDS011;17702;47.590;7.666;2023-12-28T08:30:51;14.65;;;8.88;;
31037;SDS011;17702;47.590;7.666;2023-12-28T08:33:17;16.88;;;8.93;;
31037;SDS011;17702;47.590;7.666;2023-12-28T08:35:42;31.15;;;19.17;;
31037;SDS011;17702;47.590;7.666;2023-12-28T08:38:08;20.58;;;14.30;;
31037;SDS011;17702;47.590;7.666;2023-12-28T08:40:33;59.08;;;36.30;;
31037;SDS011;17702;47.590;7.666;2023-12-28T08:42:59;13.48;;;8.68;;
31037;SDS011;17702;47.590;7.666;2023-12-28T08:45:25;18.75;;;8.88;;
31037;SDS011;17702;47.590;7.666;2023-12-28T08:47:50;12.20;;;8.25;;
31037;SDS011;17702;47.590;7.666;2023-12-28T08:50:16;13.88;;;8.07;;
31037;SDS011;17702;47.590;7.666;2023-12-28T08:52:42;11.23;;;8.25;;
31037;SDS011;17702;47.590;7.666;2023-12-28T08:55:07;10.88;;;7.68;;
31037;SDS011;17702;47.590;7.666;2023-12-28T08:57:33;11.05;;;7.80;;
31037;SDS011;17702;47.590;7.666;2023-12-28T08:59:59;9.18;;;7.07;;
31037;SDS011;17702;47.590;7.666;2023-12-28T09:02:28;11.45;;;7.68;;
31037;SDS011;17702;47.590;7.666;2023-12-28T09:04:54;12.02;;;7.45;;
31037;SDS011;17702;47.590;7.666;2023-12-28T09:07:19;10.20;;;7.35;;
31037;SDS011;17702;47.590;7.666;2023-12-28T09:09:45;10.65;;;7.70;;
31037;SDS011;17702;47.590;7.666;2023-12-28T09:12:11;10.35;;;7.47;;
31037;SDS011;17702;47.590;7.666;2023-12-28T09:14:37;13.10;;;7.65;;
31037;SDS011;17702;47.590;7.666;2023-12-28T09:17:02;12.25;;;8.07;;
31037;SDS011;17702;47.590;7.666;2023-12-28T09:19:28;16.48;;;8.80;;
31037;SDS011;17702;47.590;7.666;2023-12-28T09:21:54;16.73;;;8.82;;
31037;SDS011;17702;47.590;7.666;2023-12-28T09:24:19;12.68;;;8.93;;
31037;SDS011;17702;47.590;7.666;2023-12-28T09:26:45;46.67;;;32.40;;
31037;SDS011;17702;47.590;7.666;2023-12-28T09:29:11;59.30;;;36.92;;
31037;SDS011;17702;47.590;7.666;2023-12-28T09:31:37;16.63;;;11.38;;
31037;SDS011;17702;47.590;7.666;2023-12-28T09:34:03;13.48;;;8.25;;
31037;SDS011;17702;47.590;7.666;2023-12-28T09:36:29;14.23;;;8.70;;
31037;SDS011;17702;47.590;7.666;2023-12-28T09:38:55;10.60;;;7.97;;
31037;SDS011;17702;47.590;7.666;2023-12-28T09:41:21;12.15;;;7.65;;
31037;SDS011;17702;47.590;7.666;2023-12-28T09:43:53;10.82;;;7.93;;
31037;SDS011;17702;47.590;7.666;2023-12-28T09:46:20;9.30;;;8.00;;
31037;SDS011;17702;47.590;7.666;2023-12-28T09:48:46;9.85;;;7.60;;
31037;SDS011;17702;47.590;7.666;2023-12-28T09:51:12;11.65;;;7.68;;
31037;SDS011;17702;47.590;7.666;2023-12-28T09:53:38;10.52;;;7.28;;
31037;SDS011;17702;47.590;7.666;2023-12-28T09:56:03;9.18;;;6.88;;
31037;SDS011;17702;47.590;7.666;2023-12-28T09:58:30;10.10;;;7.45;;
31037;SDS011;17702;47.590;7.666;2023-12-28T10:01:00;11.85;;;7.68;;
31037;SDS011;17702;47.590;7.666;2023-12-28T10:03:26;8.15;;;6.90;;
31037;SDS011;17702;47.590;7.666;2023-12-28T10:05:52;10.55;;;6.82;;
31037;SDS011;17702;47.590;7.666;2023-12-28T10:08:18;8.10;;;6.97;;
31037;SDS011;17702;47.590;7.666;2023-12-28T10:10:43;11.18;;;7.00;;
31037;SDS011;17702;47.590;7.666;2023-12-28T10:13:16;8.98;;;7.03;;
31037;SDS011;17702;47.590;7.666;2023-12-28T10:15:42;12.95;;;8.15;;
31037;SDS011;17702;47.590;7.666;2023-12-28T10:18:08;13.98;;;8.73;;
31037;SDS011;17702;47.590;7.666;2023-12-28T10:20:34;10.27;;;8.02;;
31037;SDS011;17702;47.590;7.666;2023-12-28T10:23:00;12.13;;;8.30;;
31037;SDS011;17702;47.590;7.666;2023-12-28T10:25:30;16.67;;;11.52;;
31037;SDS011;17702;47.590;7.666;2023-12-28T10:30:24;20.55;;;10.73;;
31037;SDS011;17702;47.590;7.666;2023-12-28T10:32:49;15.02;;;10.32;;
31037;SDS011;17702;47.590;7.666;2023-12-28T10:35:15;16.60;;;10.43;;
31037;SDS011;17702;47.590;7.666;2023-12-28T10:37:41;17.05;;;11.02;;
31037;SDS011;17702;47.590;7.666;2023-12-28T10:40:07;16.60;;;10.00;;
31037;SDS011;17702;47.590;7.666;2023-12-28T10:45:16;15.20;;;9.43;;
31037;SDS011;17702;47.590;7.666;2023-12-28T10:47:48;16.65;;;8.95;;
31037;SDS011;17702;47.590;7.666;2023-12-28T10:50:37;17.30;;;8.45;;
31037;SDS011;17702;47.590;7.666;2023-12-28T10:58:40;17.13;;;10.07;;
31037;SDS011;17702;47.590;7.666;2023-12-28T11:01:11;15.98;;;10.57;;
31037;SDS011;17702;47.590;7.666;2023-12-28T11:03:48;17.23;;;10.93;;
31037;SDS011;17702;47.590;7.666;2023-12-28T11:06:22;21.27;;;10.93;;
31037;SDS011;17702;47.590;7.666;2023-12-28T11:08:50;16.85;;;9.88;;
31037;SDS011;17702;47.590;7.666;2023-12-28T11:11:18;20.33;;;11.18;;
31037;SDS011;17702;47.590;7.666;2023-12-28T11:13:46;18.05;;;11.48;;
31037;SDS011;17702;47.590;7.666;2023-12-28T11:16:13;14.73;;;10.32;;
31037;SDS011;17702;47.590;7.666;2023-12-28T11:18:39;16.45;;;10.18;;
31037;SDS011;17702;47.590;7.666;2023-12-28T11:21:05;12.65;;;9.00;;
31037;SDS011;17702;47.590;7.666;2023-12-28T11:23:31;13.85;;;8.52;;
31037;SDS011;17702;47.590;7.666;2023-12-28T11:25:57;11.50;;;8.02;;
31037;SDS011;17702;47.590;7.666;2023-12-28T11:28:23;15.65;;;7.35;;
31037;SDS011;17702;47.590;7.666;2023-12-28T11:30:49;12.32;;;8.02;;
31037;SDS011;17702;47.590;7.666;2023-12-28T11:33:17;10.85;;;8.82;;
31037;SDS011;17702;47.590;7.666;2023-12-28T11:35:42;18.98;;;10.90;;
31037;SDS011;17702;47.590;7.666;2023-12-28T11:38:09;19.40;;;11.38;;
31037;SDS011;17702;47.590;7.666;2023-12-28T11:40:42;17.33;;;10.73;;
31037;SDS011;17702;47.590;7.666;2023-12-28T11:43:19;18.63;;;10.95;;
31037;SDS011;17702;47.590;7.666;2023-12-28T11:45:46;16.13;;;10.77;;
31037;SDS011;17702;47.590;7.666;2023-12-28T11:48:21;17.58;;;10.65;;
31037;SDS011;17702;47.590;7.666;2023-12-28T11:50:49;16.73;;;10.23;;
31037;SDS011;17702;47.590;7.666;2023-12-28T11:53:14;15.38;;;9.32;;
31037;SDS011;17702;47.590;7.666;2023-12-28T11:55:41;16.40;;;10.10;;
31037;SDS011;17702;47.590;7.666;2023-12-28T11:58:08;23.15;;;13.32;;
31037;SDS011;17702;47.590;7.666;2023-12-28T12:00:33;33.45;;;14.70;;
31037;SDS011;17702;47.590;7.666;2023-12-28T12:02:59;28.05;;;15.18;;
31037;SDS011;17702;47.590;7.666;2023-12-28T12:05:24;27.73;;;14.52;;
31037;SDS011;17702;47.590;7.666;2023-12-28T12:07:50;28.10;;;14.07;;
31037;SDS011;17702;47.590;7.666;2023-12-28T12:10:16;25.25;;;13.77;;
31037;SDS011;17702;47.590;7.666;2023-12-28T12:12:42;23.52;;;12.48;;
31037;SDS011;17702;47.590;7.666;2023-12-28T12:15:08;25.75;;;13.02;;
31037;SDS011;17702;47.590;7.666;2023-12-28T12:17:34;20.98;;;11.50;;
31037;SDS011;17702;47.590;7.666;2023-12-28T12:19:59;24.83;;;12.18;;
31037;SDS011;17702;47.590;7.666;2023-12-28T12:22:27;23.30;;;11.23;;
31037;SDS011;17702;47.590;7.666;2023-12-28T12:24:52;19.90;;;10.77;;
31037;SDS011;17702;47.590;7.666;2023-12-28T12:27:20;16.02;;;9.80;;
31037;SDS011;17702;47.590;7.666;2023-12-28T12:29:46;15.57;;;8.32;;
31037;SDS011;17702;47.590;7.666;2023-12-28T12:32:12;13.27;;;7.45;;
31037;SDS011;17702;47.590;7.666;2023-12-28T12:34:38;12.20;;;7.82;;
31037;SDS011;17702;47.590;7.666;2023-12-28T12:37:04;14.43;;;8.05;;
31037;SDS011;17702;47.590;7.666;2023-12-28T12:39:30;27.80;;;13.10;;
31037;SDS011;17702;47.590;7.666;2023-12-28T12:41:57;30.65;;;13.13;;
31037;SDS011;17702;47.590;7.666;2023-12-28T12:44:23;22.50;;;10.65;;
31037;SDS011;17702;47.590;7.666;2023-12-28T12:46:48;18.10;;;9.27;;
31037;SDS011;17702;47.590;7.666;2023-12-28T12:49:22;20.83;;;9.52;;
31037;SDS011;17702;47.590;7.666;2023-12-28T12:51:48;15.77;;;9.15;;
31037;SDS011;17702;47.590;7.666;2023-12-28T12:54:16;14.02;;;7.82;;
31037;SDS011;17702;47.590;7.666;2023-12-28T12:56:43;11.40;;;7.10;;
31037;SDS011;17702;47.590;7.666;2023-12-28T12:59:10;13.25;;;7.63;;
31037;SDS011;17702;47.590;7.666;2023-12-28T13:01:41;16.55;;;7.70;;
31037;SDS011;17702;47.590;7.666;2023-12-28T13:04:07;11.25;;;7.05;;
31037;SDS011;17702;47.590;7.666;2023-12-28T13:06:33;8.20;;;6.50;;
31037;SDS011;17702;47.590;7.666;2023-12-28T13:08:59;20.05;;;12.43;;
31037;SDS011;17702;47.590;7.666;2023-12-28T13:11:25;28.02;;;19.25;;
31037;SDS011;17702;47.590;7.666;2023-12-28T13:13:51;12.88;;;7.63;;
31037;SDS011;17702;47.590;7.666;2023-12-28T13:16:17;8.25;;;5.00;;
31037;SDS011;17702;47.590;7.666;2023-12-28T13:18:43;7.47;;;5.60;;
31037;SDS011;17702;47.590;7.666;2023-12-28T13:21:09;6.88;;;5.00;;
31037;SDS011;17702;47.590;7.666;2023-12-28T13:23:34;7.65;;;5.40;;
31037;SDS011;17702;47.590;7.666;2023-12-28T13:26:00;12.45;;;6.68;;
31037;SDS011;17702;47.590;7.666;2023-12-28T13:28:25;6.43;;;4.72;;
31037;SDS011;17702;47.590;7.666;2023-12-28T13:30:51;6.15;;;4.78;;
31037;SDS011;17702;47.590;7.666;2023-12-28T13:33:20;9.02;;;5.75;;
31037;SDS011;17702;47.590;7.666;2023-12-28T13:35:46;7.72;;;5.90;;
31037;SDS011;17702;47.590;7.666;2023-12-28T13:38:12;5.80;;;5.18;;
31037;SDS011;17702;47.590;7.666;2023-12-28T13:40:37;6.68;;;5.45;;
31037;SDS011;17702;47.590;7.666;2023-12-28T13:43:03;7.88;;;5.60;;
31037;SDS011;17702;47.590;7.666;2023-12-28T13:45:28;7.45;;;5.65;;
31037;SDS011;17702;47.590;7.666;2023-12-28T13:47:54;10.98;;;5.72;;
31037;SDS011;17702;47.590;7.666;2023-12-28T13:50:19;10.05;;;5.95;;
31037;SDS011;17702;47.590;7.666;2023-12-28T13:52:45;6.53;;;5.57;;
31037;SDS011;17702;47.590;7.666;2023-12-28T13:55:11;9.50;;;5.88;;
31037;SDS011;17702;47.590;7.666;2023-12-28T13:57:37;14.90;;;6.00;;
31037;SDS011;17702;47.590;7.666;2023-12-28T14:00:03;8.05;;;5.95;;
31037;SDS011;17702;47.590;7.666;2023-12-28T14:02:30;6.78;;;5.90;;
31037;SDS011;17702;47.590;7.666;2023-12-28T14:04:56;6.65;;;5.53;;
31037;SDS011;17702;47.590;7.666;2023-12-28T14:07:25;6.90;;;6.07;;
31037;SDS011;17702;47.590;7.666;2023-12-28T14:09:51;9.18;;;5.93;;
31037;SDS011;17702;47.590;7.666;2023-12-28T14:12:17;11.77;;;5.82;;
31037;SDS011;17702;47.590;7.666;2023-12-28T14:14:43;10.50;;;6.53;;
31037;SDS011;17702;47.590;7.666;2023-12-28T14:17:08;6.95;;;6.05;;
31037;SDS011;17702;47.590;7.666;2023-12-28T14:19:34;7.95;;;6.65;;
31037;SDS011;17702;47.590;7.666;2023-12-28T14:21:59;18.20;;;9.30;;
31037;SDS011;17702;47.590;7.666;2023-12-28T14:24:25;10.73;;;6.63;;
31037;SDS011;17702;47.590;7.666;2023-12-28T14:26:55;10.07;;;6.88;;
31037;SDS011;17702;47.590;7.666;2023-12-28T14:29:21;12.18;;;6.50;;
31037;SDS011;17702;47.590;7.666;2023-12-28T14:31:47;10.55;;;6.13;;
31037;SDS011;17702;47.590;7.666;2023-12-28T14:34:14;11.38;;;4.97;;
31037;SDS011;17702;47.590;7.666;2023-12-28T14:36:40;8.60;;;4.25;;
31037;SDS011;17702;47.590;7.666;2023-12-28T14:39:07;5.57;;;4.28;;
31037;SDS011;17702;47.590;7.666;2023-12-28T14:41:33;7.38;;;4.50;;
31037;SDS011;17702;47.590;7.666;2023-12-28T14:43:59;6.55;;;4.60;;
31037;SDS011;17702;47.590;7.666;2023-12-28T14:46:25;11.30;;;6.63;;
31037;SDS011;17702;47.590;7.666;2023-12-28T14:48:51;10.02;;;7.88;;